Terminal Aerodrome Forecast
Issued by NWS

Home | Current Version | Previous Version | Text Only | Print | Product List | Glossary On
Versions: 1 2 3 4 5 6 7 8 9 10 11 12 13 14 15 16 17 18 19 20 21 22 23 24 25
000
FTUS41 KBTV 021738
TAFSLK
TAF
KSLK 021738Z 0218/0318 VRB03KT P6SM BKN020 OVC025
     FM022100 02006KT P6SM SCT025 BKN035
     FM030300 00000KT 5SM BR FEW035 SCT060
     FM030600 00000KT 1/2SM FG VV003
     FM031400 00000KT P6SM FEW015 SCT150=

USA.gov is the U.S. government's official web portal to all federal, state and local government web resources and services.